Time;durP1;ratioP1;P1;durP2;ratioP2;P2;SDS_P1;SDS_P2;PMS_P1;PMS_P2;Temp;Humidity;BMP_temperature;BMP_pressure;BME280_temperature;BME280_humidity;BME280_pressure;Samples;Min_cycle;Max_cycle;Signal;HPM_P1;HPM_P2
2023/03/20 00:00:00;;;;;;;8.48;5.07;;;8.50;99.90;;;;;;5072731;28;20033;-74
2023/03/20 00:02:26;;;;;;;11.90;5.13;;;;;;;;;;5072355;28;20128;-75
2023/03/20 00:04:52;;;;;;;16.05;5.50;;;;;;;;;;5072136;28;20047;-75
2023/03/20 00:07:18;;;;;;;11.02;5.25;;;;;;;;;;5072247;28;20056;-74
2023/03/20 00:09:44;;;;;;;12.88;4.53;;;8.70;99.90;;;;;;5072216;28;20054;-74
2023/03/20 00:12:15;;;;;;;12.70;5.63;;;;;;;;;;5055579;28;20049;-75
2023/03/20 00:14:41;;;;;;;8.25;5.20;;;;;;;;;;5071961;28;20040;-75
2023/03/20 00:17:16;;;;;;;12.00;6.60;;;8.60;99.90;;;;;;5055297;28;20381;-76
2023/03/20 00:19:42;;;;;;;9.55;5.13;;;8.70;99.90;;;;;;5072346;28;20044;-74
2023/03/20 00:22:08;;;;;;;8.90;5.00;;;8.70;99.90;;;;;;5071869;28;20086;-74
2023/03/20 00:24:34;;;;;;;11.55;5.97;;;;;;;;;;5071936;28;20037;-74
2023/03/20 00:27:01;;;;;;;9.52;5.05;;;8.70;99.90;;;;;;5072071;28;20045;-74
2023/03/20 00:29:29;;;;;;;5.18;4.22;;;8.60;99.90;;;;;;5055256;28;20040;-74
2023/03/20 00:31:56;;;;;;;11.52;5.43;;;9.00;99.90;;;;;;5071989;28;20048;-75
2023/03/20 00:34:25;;;;;;;11.32;5.53;;;8.80;99.90;;;;;;5071512;28;20101;-74
2023/03/20 00:36:52;;;;;;;11.00;4.90;;;;;;;;;;5054937;28;20036;-74
2023/03/20 00:39:18;;;;;;;15.20;5.35;;;8.70;99.90;;;;;;5072044;28;20101;-75
2023/03/20 00:41:48;;;;;;;20.00;6.18;;;;;;;;;;5071823;28;20119;-74
2023/03/20 00:44:26;;;;;;;10.93;5.93;;;;;;;;;;5071364;28;20028;-74
2023/03/20 00:46:58;;;;;;;12.48;5.82;;;8.60;99.90;;;;;;5071721;28;20079;-74
2023/03/20 00:49:32;;;;;;;24.58;7.38;;;8.70;99.90;;;;;;5071591;28;20099;-75
2023/03/20 00:52:00;;;;;;;10.52;6.00;;;8.70;99.90;;;;;;5054980;28;20400;-74
2023/03/20 00:54:26;;;;;;;15.77;6.43;;;8.90;99.90;;;;;;5054991;28;20399;-74
2023/03/20 00:57:25;;;;;;;14.05;6.22;;;8.80;99.90;;;;;;5054656;28;20051;-74
2023/03/20 01:00:02;;;;;;;13.80;6.50;;;9.00;99.90;;;;;;5055005;28;20033;-74
2023/03/20 01:02:29;;;;;;;14.65;6.18;;;8.90;99.90;;;;;;5054592;28;20044;-72
2023/03/20 01:04:55;;;;;;;17.75;6.47;;;8.80;99.90;;;;;;5071434;28;20036;-74
2023/03/20 01:07:21;;;;;;;13.95;5.93;;;;;;;;;;5071412;28;20174;-74
2023/03/20 01:09:47;;;;;;;18.88;7.03;;;;;;;;;;5070266;28;20534;-76
2023/03/20 01:12:15;;;;;;;19.90;5.90;;;8.90;99.90;;;;;;5070175;28;20097;-75
2023/03/20 01:14:41;;;;;;;14.23;5.88;;;8.90;99.90;;;;;;5054033;28;20140;-74
2023/03/20 01:17:27;;;;;;;13.63;6.18;;;8.90;99.90;;;;;;5054096;28;20053;-74
2023/03/20 01:19:53;;;;;;;16.42;5.97;;;9.10;99.90;;;;;;5054263;28;20043;-74
2023/03/20 01:22:19;;;;;;;13.18;6.15;;;9.00;99.90;;;;;;5070807;28;20045;-74
2023/03/20 01:24:46;;;;;;;16.75;6.50;;;8.80;99.90;;;;;;5070684;28;20041;-74
2023/03/20 01:27:16;;;;;;;16.75;6.85;;;;;;;;;;5070732;28;20048;-74
2023/03/20 01:29:42;;;;;;;23.02;6.85;;;;;;;;;;5071156;28;20071;-74
2023/03/20 01:32:13;;;;;;;18.75;7.45;;;8.90;99.90;;;;;;5071104;28;20496;-74
2023/03/20 01:34:39;;;;;;;18.65;6.60;;;9.00;99.90;;;;;;5070596;28;20047;-74
2023/03/20 01:37:11;;;;;;;15.75;6.57;;;8.90;99.90;;;;;;5070441;28;20044;-74
2023/03/20 01:39:37;;;;;;;20.65;6.80;;;8.90;99.90;;;;;;5070795;28;20040;-74
2023/03/20 01:42:04;;;;;;;20.65;6.43;;;8.90;99.90;;;;;;5053701;28;20037;-74
2023/03/20 01:44:33;;;;;;;18.27;6.45;;;9.00;99.90;;;;;;5053669;28;20094;-74
2023/03/20 01:47:01;;;;;;;17.50;6.53;;;8.90;99.90;;;;;;5053858;28;20033;-74
2023/03/20 01:49:27;;;;;;;13.90;6.10;;;;;;;;;;5053732;28;20070;-74
2023/03/20 01:51:55;;;;;;;22.48;6.60;;;8.90;99.90;;;;;;5070174;28;20499;-75
2023/03/20 01:54:29;;;;;;;18.52;6.78;;;;;;;;;;5070353;28;20043;-75
2023/03/20 01:57:11;;;;;;;16.00;6.35;;;8.90;99.90;;;;;;5053537;28;20051;-75
2023/03/20 01:59:41;;;;;;;15.65;6.45;;;;;;;;;;5053763;28;20045;-74
2023/03/20 02:02:09;;;;;;;20.75;6.70;;;8.90;99.90;;;;;;5069694;28;20040;-74
2023/03/20 02:04:41;;;;;;;16.92;6.43;;;9.20;99.90;;;;;;5070068;28;20040;-74
2023/03/20 02:07:09;;;;;;;16.83;6.45;;;8.90;99.90;;;;;;5053685;28;20089;-73
2023/03/20 02:09:36;;;;;;;17.52;8.20;;;8.90;99.90;;;;;;5053638;28;20094;-74
2023/03/20 02:12:02;;;;;;;14.40;6.97;;;;;;;;;;5070096;28;20036;-74
2023/03/20 02:14:28;;;;;;;16.55;6.72;;;9.00;99.90;;;;;;5070109;28;20048;-74
2023/03/20 02:16:54;;;;;;;17.20;6.85;;;;;;;;;;5070156;28;20041;-74
2023/03/20 02:19:45;;;;;;;14.82;6.43;;;9.00;99.90;;;;;;5070565;28;20552;-74
2023/03/20 02:22:52;;;;;;;12.77;6.22;;;9.10;99.90;;;;;;5070359;28;20369;-75
2023/03/20 02:25:36;;;;;;;18.05;7.53;;;;;;;;;;5012805;28;20448;-74
2023/03/20 02:28:20;;;;;;;15.88;7.47;;;9.10;99.90;;;;;;5064969;28;20174;-74
2023/03/20 02:30:58;;;;;;;16.73;7.22;;;8.90;99.90;;;;;;5070123;28;20083;-74
2023/03/20 02:33:43;;;;;;;18.95;7.10;;;9.10;99.90;;;;;;5069966;28;20040;-74
2023/03/20 02:36:29;;;;;;;22.85;8.07;;;9.10;99.90;;;;;;5069726;28;20055;-74
2023/03/20 02:39:09;;;;;;;17.02;7.03;;;8.90;99.90;;;;;;5070374;28;20040;-74
2023/03/20 02:42:10;;;;;;;21.38;9.35;;;9.20;99.90;;;;;;5053586;28;20036;-74
2023/03/20 02:44:46;;;;;;;17.98;9.13;;;9.00;99.90;;;;;;5069911;28;20094;-74
2023/03/20 02:47:24;;;;;;;17.42;8.73;;;9.10;99.90;;;;;;5070053;28;20048;-74
2023/03/20 02:49:58;;;;;;;19.65;10.13;;;9.00;99.90;;;;;;5069880;28;20044;-74
2023/03/20 02:52:31;;;;;;;17.60;7.88;;;8.90;99.90;;;;;;5070164;28;20443;-74
2023/03/20 02:55:00;;;;;;;18.38;9.27;;;;;;;;;;5070155;28;20423;-73
2023/03/20 02:57:35;;;;;;;19.95;8.77;;;9.00;99.90;;;;;;5070010;28;20500;-75
2023/03/20 03:00:14;;;;;;;17.13;8.90;;;9.00;99.90;;;;;;5069987;28;20062;-74
2023/03/20 03:02:49;;;;;;;18.33;10.05;;;9.10;99.90;;;;;;5053133;28;20040;-74
2023/03/20 03:05:19;;;;;;;21.50;9.35;;;;;;;;;;5069761;28;20037;-74
2023/03/20 03:07:47;;;;;;;21.13;10.02;;;9.10;99.90;;;;;;5053002;28;20037;-75
2023/03/20 03:10:42;;;;;;;19.27;8.35;;;8.90;99.90;;;;;;5069986;28;20130;-74
2023/03/20 03:13:14;;;;;;;21.02;8.70;;;9.20;99.90;;;;;;5069629;28;20090;-74
2023/03/20 03:15:43;;;;;;;16.92;8.57;;;9.10;99.90;;;;;;5073454;28;20071;-74
2023/03/20 03:18:18;;;;;;;18.75;8.25;;;8.90;99.90;;;;;;5056828;28;20033;-74
2023/03/20 03:20:45;;;;;;;17.65;7.93;;;9.20;99.90;;;;;;5073659;28;20127;-74
2023/03/20 03:23:18;;;;;;;18.00;8.32;;;;;;;;;;5073310;28;20052;-74
2023/03/20 03:25:45;;;;;;;13.27;7.20;;;;;;;;;;5073411;28;20047;-74
2023/03/20 03:28:44;;;;;;;14.40;7.82;;;9.30;99.90;;;;;;5073373;28;20040;-74
2023/03/20 03:31:16;;;;;;;15.00;7.20;;;9.00;99.90;;;;;;5072969;28;20496;-74
2023/03/20 03:33:45;;;;;;;13.15;6.75;;;9.30;99.90;;;;;;5072968;28;20053;-75
2023/03/20 03:36:16;;;;;;;13.77;6.25;;;;;;;;;;5072880;28;20037;-74
2023/03/20 03:38:58;;;;;;;11.57;5.60;;;9.10;99.90;;;;;;5073251;28;20036;-74
2023/03/20 03:41:36;;;;;;;14.10;6.63;;;9.00;99.90;;;;;;5072935;28;20053;-74
2023/03/20 03:44:09;;;;;;;11.73;6.43;;;;;;;;;;5072746;28;20086;-75
2023/03/20 03:46:52;;;;;;;9.95;7.15;;;9.20;99.90;;;;;;5056309;28;20518;-74
2023/03/20 03:49:34;;;;;;;17.50;7.32;;;9.20;99.90;;;;;;5072961;28;20086;-74
2023/03/20 03:52:08;;;;;;;12.98;6.78;;;9.20;99.90;;;;;;5055874;28;20079;-75
2023/03/20 03:54:44;;;;;;;17.35;7.53;;;9.20;99.90;;;;;;5072835;28;20193;-74
2023/03/20 03:57:13;;;;;;;16.80;8.40;;;9.10;99.90;;;;;;5072588;28;20125;-74
2023/03/20 03:59:41;;;;;;;13.90;7.60;;;;;;;;;;5072801;28;20173;-75
2023/03/20 04:02:08;;;;;;;17.90;8.10;;;9.10;99.90;;;;;;5072598;28;20060;-74
2023/03/20 04:04:37;;;;;;;17.38;8.48;;;9.10;99.90;;;;;;5055547;28;20115;-74
2023/03/20 04:07:03;;;;;;;17.92;9.38;;;9.20;99.90;;;;;;5072210;28;20080;-74
2023/03/20 04:09:29;;;;;;;17.13;9.23;;;9.10;99.90;;;;;;5055682;28;20145;-74
2023/03/20 04:11:54;;;;;;;13.10;8.60;;;9.10;99.90;;;;;;5072153;28;20032;-74
2023/03/20 04:14:21;;;;;;;19.80;9.05;;;;;;;;;;5072022;28;20495;-74
2023/03/20 04:16:47;;;;;;;20.35;9.70;;;;;;;;;;5071374;28;20132;-74
2023/03/20 04:19:12;;;;;;;19.15;7.85;;;9.10;99.90;;;;;;5072175;28;20036;-74
2023/03/20 04:21:39;;;;;;;18.08;8.73;;;;;;;;;;5072261;28;20044;-74
2023/03/20 04:24:05;;;;;;;12.05;7.15;;;9.10;99.90;;;;;;5071287;28;20569;-74
2023/03/20 04:26:31;;;;;;;19.45;8.45;;;;;;;;;;5071974;28;20044;-74
2023/03/20 04:28:57;;;;;;;13.52;7.93;;;9.20;99.90;;;;;;5072027;28;20049;-74
2023/03/20 04:31:23;;;;;;;14.90;8.15;;;;;;;;;;5055287;28;20113;-75
2023/03/20 04:33:49;;;;;;;18.65;8.25;;;;;;;;;;5071690;28;20040;-75
2023/03/20 04:36:15;;;;;;;16.88;8.05;;;;;;;;;;5071531;28;20094;-75
2023/03/20 04:38:41;;;;;;;19.13;8.93;;;;;;;;;;5055185;28;20040;-74
2023/03/20 04:41:08;;;;;;;16.00;8.05;;;9.10;99.90;;;;;;5071892;28;20161;-74
2023/03/20 04:43:33;;;;;;;19.92;8.95;;;9.10;99.90;;;;;;5071581;28;20128;-74
2023/03/20 04:46:00;;;;;;;14.75;8.30;;;;;;;;;;5055310;28;20040;-75
2023/03/20 04:48:26;;;;;;;22.50;8.93;;;;;;;;;;5071505;28;20131;-74
2023/03/20 04:50:53;;;;;;;17.48;8.43;;;9.10;99.90;;;;;;5071779;28;20127;-74
2023/03/20 04:53:18;;;;;;;17.80;8.57;;;9.10;99.90;;;;;;5071369;28;20154;-74
2023/03/20 04:55:44;;;;;;;16.92;9.23;;;9.10;99.90;;;;;;5071405;28;20090;-74
2023/03/20 04:58:11;;;;;;;18.30;9.15;;;9.00;99.90;;;;;;5071355;28;20123;-74
2023/03/20 05:00:37;;;;;;;18.73;10.05;;;;;;;;;;5054726;28;20068;-74
2023/03/20 05:03:03;;;;;;;23.15;10.32;;;;;;;;;;5070179;28;20040;-74
2023/03/20 05:05:29;;;;;;;20.45;9.93;;;;;;;;;;5071291;28;20045;-74
2023/03/20 05:07:55;;;;;;;21.33;10.05;;;9.00;99.90;;;;;;5054514;28;20041;-74
2023/03/20 05:10:21;;;;;;;25.02;10.85;;;8.80;99.90;;;;;;5054497;28;20036;-74
2023/03/20 05:12:47;;;;;;;17.80;10.07;;;;;;;;;;5070148;28;20115;-74
2023/03/20 05:15:13;;;;;;;24.33;10.68;;;9.00;99.90;;;;;;5070881;28;20040;-74
2023/03/20 05:17:39;;;;;;;25.70;11.60;;;;;;;;;;5070995;28;20048;-75
2023/03/20 05:20:05;;;;;;;21.73;10.85;;;;;;;;;;5070862;28;20541;-74
2023/03/20 05:22:31;;;;;;;23.13;10.57;;;;;;;;;;5071007;28;20399;-74
2023/03/20 05:24:59;;;;;;;26.58;11.18;;;;;;;;;;5054338;28;20041;-75
2023/03/20 05:27:25;;;;;;;21.25;10.65;;;;;;;;;;5054262;28;20041;-75
2023/03/20 05:29:51;;;;;;;20.10;10.50;;;;;;;;;;5071000;28;20082;-74
2023/03/20 05:32:17;;;;;;;20.13;10.88;;;;;;;;;;5072301;28;20515;-73
2023/03/20 05:34:43;;;;;;;25.02;10.88;;;9.00;99.90;;;;;;5091131;28;20092;-74
2023/03/20 05:37:09;;;;;;;23.50;11.65;;;;;;;;;;5090661;28;20119;-73
2023/03/20 05:39:35;;;;;;;22.95;10.73;;;;;;;;;;5074056;28;20040;-74
2023/03/20 05:42:01;;;;;;;23.88;11.10;;;8.90;99.90;;;;;;5073981;28;20038;-74
2023/03/20 05:44:26;;;;;;;18.88;10.40;;;8.80;99.90;;;;;;5073933;28;20036;-74
2023/03/20 05:46:52;;;;;;;22.10;11.13;;;;;;;;;;5073844;28;20040;-75
2023/03/20 05:49:19;;;;;;;20.40;10.50;;;;;;;;;;5090827;28;20040;-75
2023/03/20 05:51:45;;;;;;;18.48;9.98;;;;;;;;;;5090667;28;20127;-76
2023/03/20 05:54:11;;;;;;;18.70;10.40;;;;;;;;;;5090546;28;20134;-74
2023/03/20 05:56:36;;;;;;;22.02;9.32;;;9.00;99.90;;;;;;5090542;28;20672;-74
2023/03/20 05:59:02;;;;;;;21.15;9.85;;;9.00;99.90;;;;;;5090631;28;20161;-74
2023/03/20 06:01:27;;;;;;;18.92;9.95;;;8.80;99.90;;;;;;5073863;28;20406;-74
2023/03/20 06:03:54;;;;;;;19.60;10.45;;;;;;;;;;5090513;28;20502;-74
2023/03/20 06:06:20;;;;;;;21.17;11.35;;;8.90;99.90;;;;;;5090496;28;20123;-73
2023/03/20 06:08:46;;;;;;;22.95;10.77;;;;;;;;;;5084916;28;20476;-75
2023/03/20 06:11:12;;;;;;;18.65;10.20;;;;;;;;;;5069785;28;20094;-75
2023/03/20 06:13:38;;;;;;;23.42;11.27;;;;;;;;;;5062399;28;20185;-74
2023/03/20 06:16:04;;;;;;;22.10;10.57;;;;;;;;;;5078512;28;20654;-74
2023/03/20 06:18:29;;;;;;;25.00;11.52;;;9.00;99.90;;;;;;5079247;28;20036;-74
2023/03/20 06:20:56;;;;;;;21.13;11.05;;;8.90;99.90;;;;;;5073032;28;20066;-74
2023/03/20 06:23:22;;;;;;;19.00;9.52;;;;;;;;;;5074171;28;20036;-74
2023/03/20 06:25:48;;;;;;;20.92;9.63;;;9.10;99.90;;;;;;5069739;28;20063;-74
2023/03/20 06:28:14;;;;;;;18.05;9.93;;;9.00;99.90;;;;;;5070268;28;20047;-74
2023/03/20 06:30:39;;;;;;;26.38;10.95;;;9.10;99.90;;;;;;5069749;28;20043;-74
2023/03/20 06:33:06;;;;;;;22.67;10.30;;;9.10;99.90;;;;;;5053119;28;20037;-74
2023/03/20 06:35:32;;;;;;;19.35;9.40;;;;;;;;;;5070011;28;20125;-74
2023/03/20 06:37:58;;;;;;;21.65;10.25;;;9.10;99.90;;;;;;5053031;28;20037;-73
2023/03/20 06:40:26;;;;;;;19.17;9.73;;;9.10;99.90;;;;;;5069933;28;20385;-74
2023/03/20 06:42:52;;;;;;;18.88;10.48;;;;;;;;;;5070175;28;20059;-74
2023/03/20 06:45:18;;;;;;;19.77;9.95;;;;;;;;;;5069794;28;20102;-74
2023/03/20 06:47:45;;;;;;;20.42;9.73;;;8.90;99.90;;;;;;5055004;28;20123;-74
2023/03/20 06:50:12;;;;;;;18.65;9.50;;;9.20;99.90;;;;;;5057122;28;20037;-75
2023/03/20 06:52:38;;;;;;;18.23;10.07;;;9.20;99.90;;;;;;5073559;28;20041;-74
2023/03/20 06:55:05;;;;;;;20.40;9.82;;;9.00;99.90;;;;;;5073863;28;20072;-74
2023/03/20 06:57:31;;;;;;;18.85;9.45;;;9.40;99.90;;;;;;5056730;28;20511;-74
2023/03/20 06:59:56;;;;;;;23.35;10.20;;;9.30;99.90;;;;;;5057287;28;20075;-74
2023/03/20 07:02:23;;;;;;;19.38;10.00;;;;;;;;;;5079472;28;20089;-75
2023/03/20 07:04:49;;;;;;;23.60;10.32;;;;;;;;;;5068963;28;20036;-74
2023/03/20 07:07:16;;;;;;;24.30;11.30;;;9.30;99.90;;;;;;5081005;28;20075;-74
2023/03/20 07:09:42;;;;;;;19.58;10.57;;;9.20;99.90;;;;;;5066937;28;20065;-74
2023/03/20 07:12:14;;;;;;;23.63;11.43;;;;;;;;;;5083430;28;20044;-74
2023/03/20 07:14:43;;;;;;;19.85;10.35;;;9.30;99.90;;;;;;5083037;28;20032;-74
2023/03/20 07:17:09;;;;;;;24.48;11.15;;;;;;;;;;5092795;28;20044;-74
2023/03/20 07:19:35;;;;;;;21.02;10.27;;;;;;;;;;5092250;28;20032;-74
2023/03/20 07:22:02;;;;;;;18.00;10.40;;;;;;;;;;5065257;28;20041;-74
2023/03/20 07:24:28;;;;;;;22.73;10.88;;;9.60;99.90;;;;;;5053771;28;20043;-74
2023/03/20 07:26:55;;;;;;;24.67;10.18;;;;;;;;;;5088458;28;20040;-74
2023/03/20 07:29:20;;;;;;;23.33;11.50;;;9.50;99.90;;;;;;5089579;28;20059;-74
2023/03/20 07:31:46;;;;;;;23.55;11.45;;;9.50;99.90;;;;;;5059067;28;20492;-74
2023/03/20 07:34:12;;;;;;;23.40;12.65;;;;;;;;;;5059590;28;20048;-74
2023/03/20 07:36:40;;;;;;;20.45;10.85;;;;;;;;;;5058343;28;20041;-74
2023/03/20 07:39:06;;;;;;;19.33;12.65;;;;;;;;;;5071774;28;20040;-74
2023/03/20 07:41:31;;;;;;;19.38;11.70;;;9.60;99.90;;;;;;5065156;28;20041;-73
2023/03/20 07:43:57;;;;;;;23.92;11.18;;;9.70;99.90;;;;;;5071060;28;20055;-74
2023/03/20 07:46:24;;;;;;;22.45;12.27;;;9.60;99.90;;;;;;5079256;28;20131;-75
2023/03/20 07:48:50;;;;;;;22.63;12.10;;;;;;;;;;5055977;28;20045;-73
2023/03/20 07:51:15;;;;;;;22.75;12.30;;;9.70;99.90;;;;;;5073004;28;20036;-75
2023/03/20 07:53:41;;;;;;;24.10;12.43;;;;;;;;;;5056211;28;20049;-75
2023/03/20 07:56:08;;;;;;;25.33;12.05;;;9.70;99.90;;;;;;5073136;28;20086;-75
2023/03/20 07:58:34;;;;;;;27.17;11.88;;;;;;;;;;5055091;28;20037;-75
2023/03/20 08:00:59;;;;;;;22.25;11.82;;;9.80;99.90;;;;;;5072751;28;20040;-75
2023/03/20 08:03:25;;;;;;;31.52;12.77;;;9.80;99.90;;;;;;5072670;28;20039;-75
2023/03/20 08:05:52;;;;;;;26.52;12.60;;;9.90;99.90;;;;;;5072426;28;20036;-73
2023/03/20 08:08:18;;;;;;;23.88;12.88;;;;;;;;;;5050414;28;20083;-73
2023/03/20 08:10:44;;;;;;;24.92;12.50;;;9.90;99.90;;;;;;5072660;28;20037;-76
2023/03/20 08:13:10;;;;;;;25.25;12.07;;;;;;;;;;5055785;28;20456;-73
2023/03/20 08:15:36;;;;;;;21.10;11.90;;;;;;;;;;5072142;28;20514;-73
2023/03/20 08:18:02;;;;;;;24.42;11.60;;;;;;;;;;5072022;28;20037;-75
2023/03/20 08:20:27;;;;;;;26.10;12.48;;;10.00;99.90;;;;;;5072171;28;20217;-73
2023/03/20 08:22:53;;;;;;;24.98;11.95;;;10.00;99.90;;;;;;5072202;28;20029;-73
2023/03/20 08:25:19;;;;;;;21.77;11.32;;;9.90;99.90;;;;;;5072382;28;20492;-73
2023/03/20 08:27:45;;;;;;;19.25;10.27;;;10.00;99.90;;;;;;5055283;28;20036;-73
2023/03/20 08:30:12;;;;;;;18.17;10.73;;;;;;;;;;5055207;28;20082;-73
2023/03/20 08:32:38;;;;;;;19.02;11.23;;;;;;;;;;5071795;28;20070;-74
2023/03/20 08:35:05;;;;;;;23.30;11.32;;;;;;;;;;5072156;28;20040;-74
2023/03/20 08:37:31;;;;;;;18.05;9.68;;;;;;;;;;5071443;28;20519;-73
2023/03/20 08:39:57;;;;;;;22.08;10.65;;;;;;;;;;5063092;28;20109;-74
2023/03/20 08:42:23;;;;;;;16.38;10.32;;;;;;;;;;5088690;28;20500;-73
2023/03/20 08:44:48;;;;;;;15.20;10.02;;;10.10;99.90;;;;;;5074957;28;20035;-71
2023/03/20 08:47:15;;;;;;;19.73;10.27;;;10.10;99.90;;;;;;5091763;28;20072;-73
2023/03/20 08:49:40;;;;;;;17.50;10.48;;;10.20;99.90;;;;;;5075251;28;20407;-73
2023/03/20 08:52:06;;;;;;;22.08;10.10;;;10.30;99.90;;;;;;5091917;28;20089;-72
2023/03/20 08:54:33;;;;;;;21.33;10.75;;;;;;;;;;5091537;28;20092;-74
2023/03/20 08:56:58;;;;;;;22.05;10.57;;;10.30;99.90;;;;;;5072337;28;20067;-73
2023/03/20 08:59:24;;;;;;;20.88;10.27;;;;;;;;;;5071380;28;20496;-73
2023/03/20 09:01:50;;;;;;;19.45;10.07;;;10.50;99.90;;;;;;5071161;28;20043;-73
2023/03/20 09:04:16;;;;;;;19.30;10.10;;;;;;;;;;5070714;28;20032;-74
2023/03/20 09:06:42;;;;;;;23.65;9.80;;;;;;;;;;5077599;28;20384;-75
2023/03/20 09:09:08;;;;;;;22.50;10.23;;;;;;;;;;5070924;28;20048;-74
2023/03/20 09:11:34;;;;;;;21.08;9.43;;;10.40;99.90;;;;;;5071109;28;20064;-74
2023/03/20 09:14:00;;;;;;;18.77;8.45;;;10.50;99.90;;;;;;5070684;28;20565;-74
2023/03/20 09:16:26;;;;;;;19.20;9.15;;;10.70;99.90;;;;;;5070987;28;20090;-74
2023/03/20 09:18:51;;;;;;;19.05;10.02;;;10.70;99.90;;;;;;5071035;28;20459;-74
2023/03/20 09:21:17;;;;;;;24.20;9.70;;;10.70;99.90;;;;;;5070725;28;20040;-74
2023/03/20 09:23:43;;;;;;;23.63;10.98;;;;;;;;;;5054135;28;20051;-75
2023/03/20 09:26:10;;;;;;;32.42;12.40;;;;;;;;;;5054508;28;20036;-75
2023/03/20 09:28:36;;;;;;;20.05;10.35;;;;;;;;;;5071662;28;20040;-75
2023/03/20 09:31:02;;;;;;;39.15;14.32;;;;;;;;;;5071919;28;20097;-75
2023/03/20 09:33:28;;;;;;;19.25;9.68;;;;;;;;;;5054025;28;20055;-75
2023/03/20 09:35:54;;;;;;;22.10;9.77;;;;;;;;;;5071181;28;20093;-76
2023/03/20 09:38:20;;;;;;;20.90;11.48;;;10.70;99.90;;;;;;5072907;28;20060;-76
2023/03/20 09:40:55;;;;;;;17.77;10.02;;;10.80;99.90;;;;;;5070649;28;20131;-75
2023/03/20 09:43:47;;;;;;;20.50;10.13;;;10.90;99.90;;;;;;5053798;28;20040;-75
2023/03/20 09:46:25;;;;;;;22.25;10.23;;;10.80;99.90;;;;;;5070417;28;20040;-75
2023/03/20 09:48:53;;;;;;;18.70;9.85;;;10.80;99.90;;;;;;5053845;28;20047;-76
2023/03/20 09:51:47;;;;;;;26.90;10.38;;;10.70;99.90;;;;;;5070030;28;20040;-76
2023/03/20 09:54:31;;;;;;;19.83;9.95;;;;;;;;;;5053439;28;20036;-75
2023/03/20 09:56:57;;;;;;;;;;;10.70;99.90;;;;;;5070398;28;20041;-75
2023/03/20 09:59:25;;;;;;;19.35;11.75;;;10.70;99.90;;;;;;5069975;28;19922;-76
2023/03/20 10:01:56;;;;;;;21.60;10.07;;;10.70;99.90;;;;;;5054722;28;20028;-75
2023/03/20 10:04:27;;;;;;;20.67;10.10;;;10.70;99.90;;;;;;5090407;28;20044;-75
2023/03/20 10:06:53;;;;;;;21.67;10.05;;;;;;;;;;5073525;28;20089;-75
2023/03/20 10:09:24;;;;;;;21.98;10.77;;;;;;;;;;5072982;28;20524;-75
2023/03/20 10:12:02;;;;;;;20.58;10.73;;;10.80;99.90;;;;;;5087203;28;20046;-75
2023/03/20 10:14:47;;;;;;;21.40;10.70;;;;;;;;;;5073299;28;20040;-74
2023/03/20 10:17:41;;;;;;;20.88;11.55;;;10.80;99.90;;;;;;5091537;28;20044;-74
2023/03/20 10:20:12;;;;;;;19.30;10.20;;;10.90;99.90;;;;;;5070276;28;20044;-75
2023/03/20 10:22:50;;;;;;;18.25;10.35;;;;;;;;;;5054013;28;20385;-75
2023/03/20 10:25:25;;;;;;;22.90;11.60;;;11.00;99.90;;;;;;5073378;28;20055;-75
2023/03/20 10:28:04;;;;;;;16.52;10.38;;;10.90;99.90;;;;;;5039997;28;20037;-74
2023/03/20 10:30:30;;;;;;;22.85;10.70;;;;;;;;;;5063112;28;20036;-74
2023/03/20 10:33:17;;;;;;;21.35;11.48;;;10.80;99.90;;;;;;5076305;28;20043;-74
2023/03/20 10:35:54;;;;;;;23.90;9.35;;;;;;;;;;5061740;28;20503;-75
2023/03/20 10:38:43;;;;;;;22.70;10.75;;;10.80;99.90;;;;;;5064812;28;20071;-74
2023/03/20 10:41:12;;;;;;;21.17;10.98;;;;;;;;;;5094067;28;20040;-74
2023/03/20 10:43:40;;;;;;;23.88;10.60;;;10.80;99.90;;;;;;5091664;28;20381;-75
2023/03/20 10:46:32;;;;;;;28.17;11.70;;;10.60;99.90;;;;;;5086353;28;20040;-75
2023/03/20 10:49:07;;;;;;;26.02;11.05;;;10.60;99.90;;;;;;5084387;28;20469;-74
2023/03/20 10:51:40;;;;;;;21.17;10.45;;;10.50;99.90;;;;;;5059640;28;20127;-74
2023/03/20 10:54:25;;;;;;;19.60;10.35;;;10.90;99.90;;;;;;5059695;28;20041;-74
2023/03/20 10:56:54;;;;;;;25.10;11.70;;;10.60;99.90;;;;;;5076448;28;20067;-74
2023/03/20 10:59:42;;;;;;;17.50;9.82;;;10.70;99.90;;;;;;5059496;28;20036;-74
2023/03/20 11:02:15;;;;;;;19.92;10.93;;;10.80;99.90;;;;;;5076610;28;20040;-74
2023/03/20 11:04:42;;;;;;;19.63;10.75;;;10.60;99.90;;;;;;5076307;28;20044;-74
2023/03/20 11:07:19;;;;;;;22.45;10.07;;;10.80;99.90;;;;;;5059937;28;20472;-74
2023/03/20 11:09:45;;;;;;;20.60;9.68;;;10.70;99.90;;;;;;5076203;28;20048;-75
2023/03/20 11:12:19;;;;;;;25.67;10.70;;;11.00;99.90;;;;;;5059509;28;20040;-75
2023/03/20 11:14:45;;;;;;;19.55;10.45;;;10.70;99.90;;;;;;5059488;28;20128;-74
2023/03/20 11:17:11;;;;;;;16.73;9.55;;;;;;;;;;5076138;28;20132;-74
2023/03/20 11:19:39;;;;;;;21.75;10.25;;;;;;;;;;5076421;28;20043;-74
2023/03/20 11:22:24;;;;;;;20.80;9.48;;;10.90;99.90;;;;;;5076375;28;20075;-75
2023/03/20 11:25:02;;;;;;;16.38;9.57;;;10.80;99.90;;;;;;5059330;28;20029;-74
2023/03/20 11:27:31;;;;;;;21.35;11.82;;;10.60;99.90;;;;;;5059473;28;20076;-74
2023/03/20 11:30:00;;;;;;;18.73;9.30;;;10.60;99.90;;;;;;5076406;28;20403;-75
2023/03/20 11:32:46;;;;;;;19.60;10.65;;;10.70;99.90;;;;;;5075888;28;20048;-75
2023/03/20 11:35:27;;;;;;;18.95;9.55;;;10.60;99.90;;;;;;5073058;28;20047;-76
2023/03/20 11:37:54;;;;;;;22.67;10.15;;;10.40;99.90;;;;;;5073373;28;20040;-75
2023/03/20 11:40:29;;;;;;;20.08;10.05;;;10.40;99.90;;;;;;5075467;28;20028;-74
2023/03/20 11:43:01;;;;;;;20.02;9.88;;;10.20;99.90;;;;;;5058077;28;20119;-76
2023/03/20 11:45:36;;;;;;;21.10;10.93;;;10.40;99.90;;;;;;5079649;28;20041;-75
2023/03/20 11:48:03;;;;;;;20.95;9.85;;;10.40;99.90;;;;;;5052454;28;20681;-75
2023/03/20 11:50:31;;;;;;;20.35;9.40;;;10.30;99.90;;;;;;5052840;28;20041;-74
2023/03/20 11:52:57;;;;;;;21.85;10.73;;;10.00;99.90;;;;;;5035681;28;20032;-74
2023/03/20 11:55:30;;;;;;;26.33;10.95;;;10.00;99.90;;;;;;5052589;28;20522;-76
2023/03/20 11:57:58;;;;;;;16.10;9.57;;;10.10;99.90;;;;;;5067396;28;20461;-74
2023/03/20 12:00:26;;;;;;;25.08;11.02;;;;;;;;;;5067777;28;20442;-74
2023/03/20 12:02:52;;;;;;;26.05;10.07;;;;;;;;;;5068503;28;20037;-74
2023/03/20 12:05:28;;;;;;;18.70;10.73;;;10.00;99.90;;;;;;5047000;28;20041;-74
2023/03/20 12:07:59;;;;;;;18.90;11.13;;;10.20;99.90;;;;;;5061395;28;20029;-74
2023/03/20 12:10:30;;;;;;;21.10;11.82;;;10.10;99.90;;;;;;5069414;28;20036;-75
2023/03/20 12:13:05;;;;;;;19.67;10.48;;;;;;;;;;5069002;28;20047;-73
2023/03/20 12:15:35;;;;;;;18.70;9.98;;;9.80;99.90;;;;;;5052693;28;20063;-73
2023/03/20 12:18:20;;;;;;;24.42;11.57;;;;;;;;;;5068522;28;20044;-74
2023/03/20 12:20:59;;;;;;;18.80;10.20;;;;;;;;;;5069925;28;20024;-73
2023/03/20 12:23:51;;;;;;;17.50;10.77;;;10.00;99.90;;;;;;5064860;28;20072;-71
2023/03/20 12:26:27;;;;;;;17.95;10.32;;;9.90;99.90;;;;;;5068493;28;20055;-73
2023/03/20 12:29:12;;;;;;;17.35;11.43;;;;;;;;;;5068329;28;20121;-75
2023/03/20 12:32:02;;;;;;;21.40;12.02;;;10.00;99.90;;;;;;5068219;28;20040;-72
2023/03/20 12:34:57;;;;;;;19.58;12.75;;;;;;;;;;5051884;28;20490;-74
2023/03/20 12:37:23;;;;;;;17.52;11.07;;;9.80;99.90;;;;;;5053754;28;20513;-74
2023/03/20 12:39:58;;;;;;;16.58;12.02;;;9.90;99.90;;;;;;5070949;28;20039;-75
2023/03/20 12:42:42;;;;;;;21.55;12.07;;;10.10;99.90;;;;;;5068705;28;20041;-74
2023/03/20 12:45:10;;;;;;;18.77;12.75;;;9.80;99.90;;;;;;5066619;28;20052;-75
2023/03/20 12:48:04;;;;;;;20.40;13.80;;;10.10;99.90;;;;;;5051343;28;20634;-74
2023/03/20 12:50:32;;;;;;;22.73;12.13;;;;;;;;;;5075551;28;20075;-73
2023/03/20 12:53:33;;;;;;;25.85;13.18;;;10.20;99.90;;;;;;5069062;28;20032;-73
2023/03/20 12:56:04;;;;;;;26.23;14.57;;;9.90;99.90;;;;;;5091553;28;20048;-73
2023/03/20 12:58:53;;;;;;;20.80;13.20;;;10.00;99.90;;;;;;5091812;28;20039;-73
2023/03/20 13:01:33;;;;;;;19.98;12.27;;;10.00;99.90;;;;;;5084532;28;20048;-74
2023/03/20 13:04:06;;;;;;;21.55;12.25;;;9.90;99.90;;;;;;5071301;28;20059;-73
2023/03/20 13:06:57;;;;;;;16.15;11.23;;;10.10;99.90;;;;;;5073667;28;20051;-75
2023/03/20 13:09:25;;;;;;;18.52;11.73;;;9.90;99.90;;;;;;5071650;28;20523;-74
2023/03/20 13:12:18;;;;;;;25.25;13.50;;;10.00;99.90;;;;;;5071227;28;20044;-74
2023/03/20 13:14:59;;;;;;;16.70;11.93;;;10.00;99.90;;;;;;5082527;28;20032;-74
2023/03/20 13:17:56;;;;;;;18.27;11.18;;;10.00;99.90;;;;;;5077556;28;20076;-75
2023/03/20 13:20:27;;;;;;;16.92;13.00;;;10.10;99.90;;;;;;5020821;28;20531;-73
2023/03/20 13:23:01;;;;;;;15.35;11.30;;;;;;;;;;5034154;28;20041;-75
2023/03/20 13:25:55;;;;;;;14.10;11.77;;;9.90;99.90;;;;;;5077235;28;20131;-74
2023/03/20 13:28:41;;;;;;;16.48;11.30;;;9.90;99.90;;;;;;5070730;28;20040;-73
2023/03/20 13:31:25;;;;;;;17.17;11.55;;;10.10;99.90;;;;;;5053590;28;20141;-73